sensor_id;sensor_type;location;lat;lon;timestamp;P1;durP1;ratioP1;P2;durP2;ratioP2
58685;SDS011;44465;53.206;-6.106;2023-08-06T00:00:06;1.25;;;1.15;;
58685;SDS011;44465;53.206;-6.106;2023-08-06T00:02:34;0.77;;;0.77;;
58685;SDS011;44465;53.206;-6.106;2023-08-06T00:04:59;0.70;;;0.70;;
58685;SDS011;44465;53.206;-6.106;2023-08-06T00:07:25;1.05;;;0.70;;
58685;SDS011;44465;53.206;-6.106;2023-08-06T00:09:50;1.70;;;0.82;;
58685;SDS011;44465;53.206;-6.106;2023-08-06T00:12:16;1.67;;;0.77;;
58685;SDS011;44465;53.206;-6.106;2023-08-06T00:14:41;1.08;;;0.90;;
58685;SDS011;44465;53.206;-6.106;2023-08-06T00:17:07;0.85;;;0.80;;
58685;SDS011;44465;53.206;-6.106;2023-08-06T00:19:33;0.70;;;0.65;;
58685;SDS011;44465;53.206;-6.106;2023-08-06T00:21:58;0.60;;;0.60;;
58685;SDS011;44465;53.206;-6.106;2023-08-06T00:24:24;0.90;;;0.90;;
58685;SDS011;44465;53.206;-6.106;2023-08-06T00:26:49;1.08;;;0.60;;
58685;SDS011;44465;53.206;-6.106;2023-08-06T00:29:15;0.77;;;0.77;;
58685;SDS011;44465;53.206;-6.106;2023-08-06T00:31:41;1.02;;;0.80;;
58685;SDS011;44465;53.206;-6.106;2023-08-06T00:34:06;0.85;;;0.70;;
58685;SDS011;44465;53.206;-6.106;2023-08-06T00:36:33;0.60;;;0.52;;
58685;SDS011;44465;53.206;-6.106;2023-08-06T00:38:59;1.00;;;0.80;;
58685;SDS011;44465;53.206;-6.106;2023-08-06T00:41:25;0.80;;;0.80;;
58685;SDS011;44465;53.206;-6.106;2023-08-06T00:43:50;1.55;;;0.90;;
58685;SDS011;44465;53.206;-6.106;2023-08-06T00:46:16;1.38;;;0.75;;
58685;SDS011;44465;53.206;-6.106;2023-08-06T00:48:42;0.70;;;0.70;;
58685;SDS011;44465;53.206;-6.106;2023-08-06T00:51:09;0.88;;;0.60;;
58685;SDS011;44465;53.206;-6.106;2023-08-06T00:53:37;0.85;;;0.75;;
58685;SDS011;44465;53.206;-6.106;2023-08-06T00:56:03;1.10;;;0.80;;
58685;SDS011;44465;53.206;-6.106;2023-08-06T00:58:28;2.10;;;0.70;;
58685;SDS011;44465;53.206;-6.106;2023-08-06T01:00:54;0.57;;;0.50;;
58685;SDS011;44465;53.206;-6.106;2023-08-06T01:03:20;0.50;;;0.50;;
58685;SDS011;44465;53.206;-6.106;2023-08-06T01:05:46;0.65;;;0.65;;
58685;SDS011;44465;53.206;-6.106;2023-08-06T01:08:32;0.88;;;0.88;;
58685;SDS011;44465;53.206;-6.106;2023-08-06T01:16:18;0.73;;;0.60;;
58685;SDS011;44465;53.206;-6.106;2023-08-06T01:18:46;0.90;;;0.80;;
58685;SDS011;44465;53.206;-6.106;2023-08-06T01:21:17;0.75;;;0.60;;
58685;SDS011;44465;53.206;-6.106;2023-08-06T01:23:44;0.70;;;0.70;;
58685;SDS011;44465;53.206;-6.106;2023-08-06T01:28:54;0.70;;;0.70;;
58685;SDS011;44465;53.206;-6.106;2023-08-06T01:31:27;1.48;;;1.00;;
58685;SDS011;44465;53.206;-6.106;2023-08-06T01:33:56;0.55;;;0.52;;
58685;SDS011;44465;53.206;-6.106;2023-08-06T01:36:24;0.80;;;0.80;;
58685;SDS011;44465;53.206;-6.106;2023-08-06T01:38:51;0.80;;;0.80;;
58685;SDS011;44465;53.206;-6.106;2023-08-06T01:41:18;0.80;;;0.63;;
58685;SDS011;44465;53.206;-6.106;2023-08-06T01:43:43;1.50;;;0.68;;
58685;SDS011;44465;53.206;-6.106;2023-08-06T01:46:09;1.15;;;0.70;;
58685;SDS011;44465;53.206;-6.106;2023-08-06T01:48:35;1.08;;;0.98;;
58685;SDS011;44465;53.206;-6.106;2023-08-06T01:51:00;1.55;;;1.27;;
58685;SDS011;44465;53.206;-6.106;2023-08-06T01:53:26;1.23;;;0.70;;
58685;SDS011;44465;53.206;-6.106;2023-08-06T01:55:51;0.80;;;0.70;;
58685;SDS011;44465;53.206;-6.106;2023-08-06T01:58:16;2.17;;;1.00;;
58685;SDS011;44465;53.206;-6.106;2023-08-06T02:00:42;0.88;;;0.60;;
58685;SDS011;44465;53.206;-6.106;2023-08-06T02:03:08;1.10;;;0.63;;
58685;SDS011;44465;53.206;-6.106;2023-08-06T02:05:33;1.30;;;0.90;;
58685;SDS011;44465;53.206;-6.106;2023-08-06T02:07:58;1.00;;;0.80;;
58685;SDS011;44465;53.206;-6.106;2023-08-06T02:10:24;0.50;;;0.50;;
58685;SDS011;44465;53.206;-6.106;2023-08-06T02:12:50;0.82;;;0.68;;
58685;SDS011;44465;53.206;-6.106;2023-08-06T02:15:15;1.20;;;0.55;;
58685;SDS011;44465;53.206;-6.106;2023-08-06T02:17:41;0.90;;;0.80;;
58685;SDS011;44465;53.206;-6.106;2023-08-06T02:20:06;0.60;;;0.60;;
58685;SDS011;44465;53.206;-6.106;2023-08-06T02:22:33;1.20;;;1.10;;
58685;SDS011;44465;53.206;-6.106;2023-08-06T02:24:59;0.85;;;0.80;;
58685;SDS011;44465;53.206;-6.106;2023-08-06T02:27:24;1.48;;;0.90;;
58685;SDS011;44465;53.206;-6.106;2023-08-06T02:29:50;1.05;;;0.80;;
58685;SDS011;44465;53.206;-6.106;2023-08-06T02:32:15;0.68;;;0.60;;
58685;SDS011;44465;53.206;-6.106;2023-08-06T02:34:41;1.30;;;1.10;;
58685;SDS011;44465;53.206;-6.106;2023-08-06T02:37:06;1.10;;;0.77;;
58685;SDS011;44465;53.206;-6.106;2023-08-06T02:39:32;0.95;;;0.80;;
58685;SDS011;44465;53.206;-6.106;2023-08-06T02:41:58;0.75;;;0.75;;
58685;SDS011;44465;53.206;-6.106;2023-08-06T02:44:27;0.95;;;0.93;;
58685;SDS011;44465;53.206;-6.106;2023-08-06T02:46:52;1.08;;;0.80;;
58685;SDS011;44465;53.206;-6.106;2023-08-06T02:49:18;0.85;;;0.55;;
58685;SDS011;44465;53.206;-6.106;2023-08-06T02:51:46;1.27;;;0.70;;
58685;SDS011;44465;53.206;-6.106;2023-08-06T02:54:12;0.63;;;0.63;;
58685;SDS011;44465;53.206;-6.106;2023-08-06T02:56:37;0.98;;;0.80;;
58685;SDS011;44465;53.206;-6.106;2023-08-06T02:59:15;0.70;;;0.70;;
58685;SDS011;44465;53.206;-6.106;2023-08-06T03:02:02;0.98;;;0.90;;
58685;SDS011;44465;53.206;-6.106;2023-08-06T03:04:40;0.82;;;0.82;;
58685;SDS011;44465;53.206;-6.106;2023-08-06T03:07:06;1.85;;;1.10;;
58685;SDS011;44465;53.206;-6.106;2023-08-06T03:09:39;1.30;;;1.00;;
58685;SDS011;44465;53.206;-6.106;2023-08-06T03:12:05;1.08;;;0.80;;
58685;SDS011;44465;53.206;-6.106;2023-08-06T03:14:31;0.80;;;0.80;;
58685;SDS011;44465;53.206;-6.106;2023-08-06T03:16:57;1.02;;;0.80;;
58685;SDS011;44465;53.206;-6.106;2023-08-06T03:19:23;0.73;;;0.73;;
58685;SDS011;44465;53.206;-6.106;2023-08-06T03:21:48;0.70;;;0.70;;
58685;SDS011;44465;53.206;-6.106;2023-08-06T03:24:15;0.98;;;0.98;;
58685;SDS011;44465;53.206;-6.106;2023-08-06T03:26:41;0.65;;;0.65;;
58685;SDS011;44465;53.206;-6.106;2023-08-06T03:29:08;0.90;;;0.88;;
58685;SDS011;44465;53.206;-6.106;2023-08-06T03:31:34;0.95;;;0.80;;
58685;SDS011;44465;53.206;-6.106;2023-08-06T03:34:00;1.15;;;1.00;;
58685;SDS011;44465;53.206;-6.106;2023-08-06T03:36:28;1.23;;;0.93;;
58685;SDS011;44465;53.206;-6.106;2023-08-06T03:38:54;0.93;;;0.70;;
58685;SDS011;44465;53.206;-6.106;2023-08-06T03:41:19;2.15;;;0.90;;
58685;SDS011;44465;53.206;-6.106;2023-08-06T03:43:45;0.98;;;0.98;;
58685;SDS011;44465;53.206;-6.106;2023-08-06T03:46:17;0.90;;;0.70;;
58685;SDS011;44465;53.206;-6.106;2023-08-06T03:48:43;0.95;;;0.93;;
58685;SDS011;44465;53.206;-6.106;2023-08-06T03:51:09;1.10;;;1.00;;
58685;SDS011;44465;53.206;-6.106;2023-08-06T03:53:36;1.55;;;0.88;;
58685;SDS011;44465;53.206;-6.106;2023-08-06T03:56:02;1.05;;;0.93;;
58685;SDS011;44465;53.206;-6.106;2023-08-06T03:58:29;0.90;;;0.90;;
58685;SDS011;44465;53.206;-6.106;2023-08-06T04:01:01;2.40;;;1.00;;
58685;SDS011;44465;53.206;-6.106;2023-08-06T04:03:33;1.70;;;1.05;;
58685;SDS011;44465;53.206;-6.106;2023-08-06T04:05:59;1.00;;;0.90;;
58685;SDS011;44465;53.206;-6.106;2023-08-06T04:08:26;0.80;;;0.80;;
58685;SDS011;44465;53.206;-6.106;2023-08-06T04:10:52;1.25;;;1.15;;
58685;SDS011;44465;53.206;-6.106;2023-08-06T04:13:18;1.25;;;1.10;;
58685;SDS011;44465;53.206;-6.106;2023-08-06T04:15:44;1.10;;;0.87;;
58685;SDS011;44465;53.206;-6.106;2023-08-06T04:18:10;1.65;;;1.02;;
58685;SDS011;44465;53.206;-6.106;2023-08-06T04:20:42;1.30;;;1.20;;
58685;SDS011;44465;53.206;-6.106;2023-08-06T04:23:10;1.08;;;0.70;;
58685;SDS011;44465;53.206;-6.106;2023-08-06T04:25:36;1.35;;;0.98;;
58685;SDS011;44465;53.206;-6.106;2023-08-06T04:28:02;0.80;;;0.80;;
58685;SDS011;44465;53.206;-6.106;2023-08-06T04:30:27;1.13;;;1.02;;
58685;SDS011;44465;53.206;-6.106;2023-08-06T04:32:53;1.20;;;1.10;;
58685;SDS011;44465;53.206;-6.106;2023-08-06T04:35:19;0.75;;;0.75;;
58685;SDS011;44465;53.206;-6.106;2023-08-06T04:37:45;1.17;;;0.85;;
58685;SDS011;44465;53.206;-6.106;2023-08-06T04:40:11;0.65;;;0.65;;
58685;SDS011;44465;53.206;-6.106;2023-08-06T04:42:37;1.20;;;1.08;;
58685;SDS011;44465;53.206;-6.106;2023-08-06T04:45:02;2.10;;;1.17;;
58685;SDS011;44465;53.206;-6.106;2023-08-06T04:47:28;2.50;;;1.08;;
58685;SDS011;44465;53.206;-6.106;2023-08-06T04:49:53;0.82;;;0.82;;
58685;SDS011;44465;53.206;-6.106;2023-08-06T04:52:19;0.98;;;0.75;;
58685;SDS011;44465;53.206;-6.106;2023-08-06T04:54:44;1.27;;;1.00;;
58685;SDS011;44465;53.206;-6.106;2023-08-06T04:57:10;1.05;;;0.95;;
58685;SDS011;44465;53.206;-6.106;2023-08-06T04:59:35;0.95;;;0.90;;
58685;SDS011;44465;53.206;-6.106;2023-08-06T05:02:01;0.95;;;0.88;;
58685;SDS011;44465;53.206;-6.106;2023-08-06T05:04:27;0.80;;;0.70;;
58685;SDS011;44465;53.206;-6.106;2023-08-06T05:06:52;1.10;;;1.00;;
58685;SDS011;44465;53.206;-6.106;2023-08-06T05:09:18;1.00;;;0.90;;
58685;SDS011;44465;53.206;-6.106;2023-08-06T05:11:43;0.88;;;0.88;;
58685;SDS011;44465;53.206;-6.106;2023-08-06T05:14:09;1.33;;;1.15;;
58685;SDS011;44465;53.206;-6.106;2023-08-06T05:16:34;0.70;;;0.70;;
58685;SDS011;44465;53.206;-6.106;2023-08-06T05:18:59;1.02;;;0.93;;
58685;SDS011;44465;53.206;-6.106;2023-08-06T05:21:25;1.88;;;1.00;;
58685;SDS011;44465;53.206;-6.106;2023-08-06T05:23:50;1.08;;;0.95;;
58685;SDS011;44465;53.206;-6.106;2023-08-06T05:26:16;1.13;;;1.02;;
58685;SDS011;44465;53.206;-6.106;2023-08-06T05:28:43;1.42;;;1.17;;
58685;SDS011;44465;53.206;-6.106;2023-08-06T05:31:09;0.80;;;0.80;;
58685;SDS011;44465;53.206;-6.106;2023-08-06T05:33:35;1.20;;;1.10;;
58685;SDS011;44465;53.206;-6.106;2023-08-06T05:36:00;1.17;;;0.77;;
58685;SDS011;44465;53.206;-6.106;2023-08-06T05:38:26;1.00;;;0.85;;
58685;SDS011;44465;53.206;-6.106;2023-08-06T05:40:52;0.93;;;0.90;;
58685;SDS011;44465;53.206;-6.106;2023-08-06T05:43:17;1.23;;;0.93;;
58685;SDS011;44465;53.206;-6.106;2023-08-06T05:45:46;0.85;;;0.82;;
58685;SDS011;44465;53.206;-6.106;2023-08-06T05:48:14;1.02;;;1.00;;
58685;SDS011;44465;53.206;-6.106;2023-08-06T05:50:39;0.70;;;0.70;;
58685;SDS011;44465;53.206;-6.106;2023-08-06T05:53:05;0.90;;;0.80;;
58685;SDS011;44465;53.206;-6.106;2023-08-06T05:55:30;0.95;;;0.88;;
58685;SDS011;44465;53.206;-6.106;2023-08-06T05:57:57;1.17;;;1.07;;
58685;SDS011;44465;53.206;-6.106;2023-08-06T06:00:22;1.88;;;0.77;;
58685;SDS011;44465;53.206;-6.106;2023-08-06T06:02:48;1.08;;;1.00;;
58685;SDS011;44465;53.206;-6.106;2023-08-06T06:05:13;1.10;;;0.80;;
58685;SDS011;44465;53.206;-6.106;2023-08-06T06:07:39;0.93;;;0.70;;
58685;SDS011;44465;53.206;-6.106;2023-08-06T06:10:05;1.33;;;1.23;;
58685;SDS011;44465;53.206;-6.106;2023-08-06T06:12:31;1.38;;;1.20;;
58685;SDS011;44465;53.206;-6.106;2023-08-06T06:14:56;1.02;;;0.93;;
58685;SDS011;44465;53.206;-6.106;2023-08-06T06:17:22;1.30;;;1.00;;
58685;SDS011;44465;53.206;-6.106;2023-08-06T06:19:47;1.33;;;1.23;;
58685;SDS011;44465;53.206;-6.106;2023-08-06T06:22:13;0.88;;;0.82;;
58685;SDS011;44465;53.206;-6.106;2023-08-06T06:24:39;1.17;;;1.00;;
58685;SDS011;44465;53.206;-6.106;2023-08-06T06:27:05;1.25;;;0.90;;
58685;SDS011;44465;53.206;-6.106;2023-08-06T06:29:30;1.52;;;0.98;;
58685;SDS011;44465;53.206;-6.106;2023-08-06T06:31:56;1.30;;;1.20;;
58685;SDS011;44465;53.206;-6.106;2023-08-06T06:34:21;2.42;;;0.98;;
58685;SDS011;44465;53.206;-6.106;2023-08-06T06:36:47;0.85;;;0.82;;
58685;SDS011;44465;53.206;-6.106;2023-08-06T06:39:13;1.23;;;0.90;;
58685;SDS011;44465;53.206;-6.106;2023-08-06T06:41:38;0.80;;;0.80;;
58685;SDS011;44465;53.206;-6.106;2023-08-06T06:44:10;1.48;;;1.02;;
58685;SDS011;44465;53.206;-6.106;2023-08-06T06:46:36;0.80;;;0.77;;
58685;SDS011;44465;53.206;-6.106;2023-08-06T06:49:01;1.60;;;0.98;;
58685;SDS011;44465;53.206;-6.106;2023-08-06T06:51:27;1.38;;;0.90;;
58685;SDS011;44465;53.206;-6.106;2023-08-06T06:53:52;1.08;;;1.02;;
58685;SDS011;44465;53.206;-6.106;2023-08-06T06:56:18;1.10;;;0.77;;
58685;SDS011;44465;53.206;-6.106;2023-08-06T06:58:43;1.63;;;0.70;;
58685;SDS011;44465;53.206;-6.106;2023-08-06T07:01:09;1.42;;;1.00;;
58685;SDS011;44465;53.206;-6.106;2023-08-06T07:03:36;1.75;;;1.13;;
58685;SDS011;44465;53.206;-6.106;2023-08-06T07:06:02;1.00;;;0.90;;
58685;SDS011;44465;53.206;-6.106;2023-08-06T07:08:28;0.95;;;0.90;;
58685;SDS011;44465;53.206;-6.106;2023-08-06T07:11:04;0.80;;;0.70;;
58685;SDS011;44465;53.206;-6.106;2023-08-06T07:13:31;0.82;;;0.82;;
58685;SDS011;44465;53.206;-6.106;2023-08-06T07:15:58;1.25;;;1.02;;
58685;SDS011;44465;53.206;-6.106;2023-08-06T07:18:23;1.05;;;1.00;;
58685;SDS011;44465;53.206;-6.106;2023-08-06T07:20:52;0.90;;;0.90;;
58685;SDS011;44465;53.206;-6.106;2023-08-06T07:23:23;2.63;;;1.15;;
58685;SDS011;44465;53.206;-6.106;2023-08-06T07:25:49;2.03;;;1.08;;
58685;SDS011;44465;53.206;-6.106;2023-08-06T07:28:15;0.93;;;0.80;;
58685;SDS011;44465;53.206;-6.106;2023-08-06T07:30:41;1.30;;;1.20;;
58685;SDS011;44465;53.206;-6.106;2023-08-06T07:33:08;1.05;;;0.98;;
58685;SDS011;44465;53.206;-6.106;2023-08-06T07:35:34;0.80;;;0.80;;
58685;SDS011;44465;53.206;-6.106;2023-08-06T07:38:00;1.40;;;1.00;;
58685;SDS011;44465;53.206;-6.106;2023-08-06T07:40:25;1.23;;;1.00;;
58685;SDS011;44465;53.206;-6.106;2023-08-06T07:42:51;0.98;;;0.93;;
58685;SDS011;44465;53.206;-6.106;2023-08-06T07:45:16;0.98;;;0.90;;
58685;SDS011;44465;53.206;-6.106;2023-08-06T07:47:42;1.35;;;1.10;;
58685;SDS011;44465;53.206;-6.106;2023-08-06T07:50:08;0.88;;;0.88;;
58685;SDS011;44465;53.206;-6.106;2023-08-06T07:52:34;1.45;;;1.15;;
58685;SDS011;44465;53.206;-6.106;2023-08-06T07:55:00;1.48;;;1.00;;
58685;SDS011;44465;53.206;-6.106;2023-08-06T07:57:30;0.98;;;0.88;;
58685;SDS011;44465;53.206;-6.106;2023-08-06T08:00:00;0.88;;;0.85;;
58685;SDS011;44465;53.206;-6.106;2023-08-06T08:02:27;1.20;;;0.95;;
58685;SDS011;44465;53.206;-6.106;2023-08-06T08:04:52;1.23;;;1.10;;
58685;SDS011;44465;53.206;-6.106;2023-08-06T08:07:18;1.08;;;0.98;;
58685;SDS011;44465;53.206;-6.106;2023-08-06T08:09:44;1.25;;;1.10;;
58685;SDS011;44465;53.206;-6.106;2023-08-06T08:12:09;1.75;;;1.10;;
58685;SDS011;44465;53.206;-6.106;2023-08-06T08:14:35;2.55;;;0.93;;
58685;SDS011;44465;53.206;-6.106;2023-08-06T08:17:02;0.90;;;0.90;;
58685;SDS011;44465;53.206;-6.106;2023-08-06T08:19:28;1.97;;;1.03;;
58685;SDS011;44465;53.206;-6.106;2023-08-06T08:21:54;1.58;;;0.95;;
58685;SDS011;44465;53.206;-6.106;2023-08-06T08:24:20;2.17;;;1.13;;
58685;SDS011;44465;53.206;-6.106;2023-08-06T08:26:49;1.15;;;1.05;;
58685;SDS011;44465;53.206;-6.106;2023-08-06T08:29:15;1.48;;;1.10;;
58685;SDS011;44465;53.206;-6.106;2023-08-06T08:31:40;1.13;;;0.80;;
58685;SDS011;44465;53.206;-6.106;2023-08-06T08:34:06;0.98;;;0.90;;
58685;SDS011;44465;53.206;-6.106;2023-08-06T08:36:31;0.77;;;0.70;;
58685;SDS011;44465;53.206;-6.106;2023-08-06T08:38:56;1.00;;;0.90;;
58685;SDS011;44465;53.206;-6.106;2023-08-06T08:41:22;1.13;;;1.02;;
58685;SDS011;44465;53.206;-6.106;2023-08-06T08:43:51;1.63;;;0.93;;
58685;SDS011;44465;53.206;-6.106;2023-08-06T08:46:17;1.05;;;0.95;;
58685;SDS011;44465;53.206;-6.106;2023-08-06T08:51:10;1.92;;;0.95;;
58685;SDS011;44465;53.206;-6.106;2023-08-06T08:53:37;1.42;;;1.00;;
58685;SDS011;44465;53.206;-6.106;2023-08-06T08:56:04;0.60;;;0.60;;
58685;SDS011;44465;53.206;-6.106;2023-08-06T08:58:31;1.42;;;1.00;;
58685;SDS011;44465;53.206;-6.106;2023-08-06T09:00:57;1.40;;;1.00;;
58685;SDS011;44465;53.206;-6.106;2023-08-06T09:03:23;0.90;;;0.85;;
58685;SDS011;44465;53.206;-6.106;2023-08-06T09:05:50;0.80;;;0.80;;
58685;SDS011;44465;53.206;-6.106;2023-08-06T09:08:18;1.20;;;0.90;;
58685;SDS011;44465;53.206;-6.106;2023-08-06T09:10:49;1.08;;;0.98;;
58685;SDS011;44465;53.206;-6.106;2023-08-06T09:15:42;1.85;;;1.35;;
58685;SDS011;44465;53.206;-6.106;2023-08-06T09:18:09;1.65;;;1.02;;
58685;SDS011;44465;53.206;-6.106;2023-08-06T09:20:37;1.23;;;0.95;;
58685;SDS011;44465;53.206;-6.106;2023-08-06T09:23:09;0.90;;;0.90;;
58685;SDS011;44465;53.206;-6.106;2023-08-06T09:25:38;1.33;;;1.02;;
58685;SDS011;44465;53.206;-6.106;2023-08-06T09:28:07;1.27;;;1.17;;
58685;SDS011;44465;53.206;-6.106;2023-08-06T09:30:34;2.10;;;1.33;;
58685;SDS011;44465;53.206;-6.106;2023-08-06T09:33:01;1.00;;;0.90;;
58685;SDS011;44465;53.206;-6.106;2023-08-06T09:35:30;1.35;;;1.10;;
58685;SDS011;44465;53.206;-6.106;2023-08-06T09:38:06;1.90;;;1.25;;
58685;SDS011;44465;53.206;-6.106;2023-08-06T09:40:32;1.70;;;0.90;;
58685;SDS011;44465;53.206;-6.106;2023-08-06T09:42:58;1.55;;;1.15;;
58685;SDS011;44465;53.206;-6.106;2023-08-06T09:45:31;0.93;;;0.93;;
58685;SDS011;44465;53.206;-6.106;2023-08-06T09:47:58;2.63;;;1.08;;
58685;SDS011;44465;53.206;-6.106;2023-08-06T09:50:32;2.35;;;0.90;;
58685;SDS011;44465;53.206;-6.106;2023-08-06T09:53:00;1.77;;;1.00;;
58685;SDS011;44465;53.206;-6.106;2023-08-06T09:55:26;0.93;;;0.88;;
58685;SDS011;44465;53.206;-6.106;2023-08-06T09:57:52;1.25;;;0.98;;
58685;SDS011;44465;53.206;-6.106;2023-08-06T10:00:18;1.27;;;0.82;;
58685;SDS011;44465;53.206;-6.106;2023-08-06T10:02:46;1.67;;;0.70;;
58685;SDS011;44465;53.206;-6.106;2023-08-06T10:05:11;0.88;;;0.88;;
58685;SDS011;44465;53.206;-6.106;2023-08-06T10:07:37;1.88;;;1.33;;
58685;SDS011;44465;53.206;-6.106;2023-08-06T10:10:05;1.67;;;1.10;;
58685;SDS011;44465;53.206;-6.106;2023-08-06T10:12:36;1.55;;;1.25;;
58685;SDS011;44465;53.206;-6.106;2023-08-06T10:15:06;0.90;;;0.90;;
58685;SDS011;44465;53.206;-6.106;2023-08-06T10:17:35;1.25;;;1.20;;
58685;SDS011;44465;53.206;-6.106;2023-08-06T10:20:06;1.90;;;1.38;;
58685;SDS011;44465;53.206;-6.106;2023-08-06T10:22:33;1.58;;;1.08;;
58685;SDS011;44465;53.206;-6.106;2023-08-06T10:24:59;1.63;;;1.17;;
58685;SDS011;44465;53.206;-6.106;2023-08-06T10:27:40;1.98;;;1.50;;
58685;SDS011;44465;53.206;-6.106;2023-08-06T10:32:55;1.58;;;1.27;;
58685;SDS011;44465;53.206;-6.106;2023-08-06T10:35:41;2.47;;;1.33;;
58685;SDS011;44465;53.206;-6.106;2023-08-06T10:38:17;1.50;;;1.30;;
58685;SDS011;44465;53.206;-6.106;2023-08-06T10:45:55;1.88;;;1.08;;
58685;SDS011;44465;53.206;-6.106;2023-08-06T10:48:28;1.80;;;1.33;;
58685;SDS011;44465;53.206;-6.106;2023-08-06T10:50:54;1.25;;;1.15;;
58685;SDS011;44465;53.206;-6.106;2023-08-06T10:53:21;2.33;;;1.38;;
58685;SDS011;44465;53.206;-6.106;2023-08-06T10:55:46;1.45;;;1.35;;
58685;SDS011;44465;53.206;-6.106;2023-08-06T10:58:12;1.65;;;1.30;;
58685;SDS011;44465;53.206;-6.106;2023-08-06T11:00:40;1.60;;;1.42;;
58685;SDS011;44465;53.206;-6.106;2023-08-06T11:03:07;1.50;;;1.40;;
58685;SDS011;44465;53.206;-6.106;2023-08-06T11:05:34;4.03;;;1.40;;
58685;SDS011;44465;53.206;-6.106;2023-08-06T11:07:59;19.83;;;2.25;;
58685;SDS011;44465;53.206;-6.106;2023-08-06T11:10:25;8.38;;;1.70;;
58685;SDS011;44465;53.206;-6.106;2023-08-06T11:12:50;6.38;;;1.50;;
58685;SDS011;44465;53.206;-6.106;2023-08-06T11:15:16;2.65;;;1.40;;
58685;SDS011;44465;53.206;-6.106;2023-08-06T11:17:41;5.93;;;1.30;;
58685;SDS011;44465;53.206;-6.106;2023-08-06T11:20:07;2.45;;;1.33;;
58685;SDS011;44465;53.206;-6.106;2023-08-06T11:22:33;4.43;;;1.70;;
58685;SDS011;44465;53.206;-6.106;2023-08-06T11:25:01;4.88;;;1.30;;
58685;SDS011;44465;53.206;-6.106;2023-08-06T11:27:27;2.17;;;1.20;;
58685;SDS011;44465;53.206;-6.106;2023-08-06T11:29:54;3.97;;;1.48;;
58685;SDS011;44465;53.206;-6.106;2023-08-06T11:32:19;3.65;;;1.48;;
58685;SDS011;44465;53.206;-6.106;2023-08-06T11:34:45;2.72;;;1.40;;
58685;SDS011;44465;53.206;-6.106;2023-08-06T11:37:11;1.80;;;1.20;;
58685;SDS011;44465;53.206;-6.106;2023-08-06T11:39:37;1.88;;;1.27;;
58685;SDS011;44465;53.206;-6.106;2023-08-06T11:42:04;2.67;;;1.50;;
58685;SDS011;44465;53.206;-6.106;2023-08-06T11:44:31;4.63;;;1.75;;
58685;SDS011;44465;53.206;-6.106;2023-08-06T11:47:01;10.77;;;1.98;;
58685;SDS011;44465;53.206;-6.106;2023-08-06T11:49:38;5.50;;;1.70;;
58685;SDS011;44465;53.206;-6.106;2023-08-06T11:52:11;12.98;;;2.67;;
58685;SDS011;44465;53.206;-6.106;2023-08-06T11:54:40;6.90;;;1.35;;
58685;SDS011;44465;53.206;-6.106;2023-08-06T11:57:05;16.70;;;1.90;;
58685;SDS011;44465;53.206;-6.106;2023-08-06T11:59:32;23.05;;;3.42;;
58685;SDS011;44465;53.206;-6.106;2023-08-06T12:01:57;6.68;;;2.08;;
58685;SDS011;44465;53.206;-6.106;2023-08-06T12:04:26;13.63;;;3.83;;
58685;SDS011;44465;53.206;-6.106;2023-08-06T12:06:52;7.85;;;1.80;;
58685;SDS011;44465;53.206;-6.106;2023-08-06T12:09:18;12.30;;;2.58;;
58685;SDS011;44465;53.206;-6.106;2023-08-06T12:11:43;14.93;;;2.58;;
58685;SDS011;44465;53.206;-6.106;2023-08-06T12:14:09;34.33;;;3.47;;
58685;SDS011;44465;53.206;-6.106;2023-08-06T12:16:35;56.47;;;5.68;;
58685;SDS011;44465;53.206;-6.106;2023-08-06T12:19:01;52.88;;;5.85;;
58685;SDS011;44465;53.206;-6.106;2023-08-06T12:21:26;14.32;;;2.92;;
58685;SDS011;44465;53.206;-6.106;2023-08-06T12:23:52;10.27;;;2.22;;
58685;SDS011;44465;53.206;-6.106;2023-08-06T12:26:17;8.13;;;2.33;;
58685;SDS011;44465;53.206;-6.106;2023-08-06T12:28:43;31.08;;;3.50;;
58685;SDS011;44465;53.206;-6.106;2023-08-06T12:31:08;15.32;;;2.40;;
58685;SDS011;44465;53.206;-6.106;2023-08-06T12:33:33;8.68;;;2.55;;
58685;SDS011;44465;53.206;-6.106;2023-08-06T12:36:00;11.05;;;2.45;;
58685;SDS011;44465;53.206;-6.106;2023-08-06T12:38:25;13.93;;;2.65;;
58685;SDS011;44465;53.206;-6.106;2023-08-06T12:40:50;15.57;;;2.25;;
58685;SDS011;44465;53.206;-6.106;2023-08-06T12:43:16;8.68;;;1.88;;
58685;SDS011;44465;53.206;-6.106;2023-08-06T12:45:41;10.25;;;2.13;;
58685;SDS011;44465;53.206;-6.106;2023-08-06T12:48:07;7.05;;;1.98;;
58685;SDS011;44465;53.206;-6.106;2023-08-06T12:50:32;11.82;;;3.40;;
58685;SDS011;44465;53.206;-6.106;2023-08-06T12:52:58;8.30;;;1.98;;
58685;SDS011;44465;53.206;-6.106;2023-08-06T12:55:23;9.93;;;2.75;;
58685;SDS011;44465;53.206;-6.106;2023-08-06T12:57:49;5.10;;;1.77;;
58685;SDS011;44465;53.206;-6.106;2023-08-06T13:00:14;7.88;;;2.00;;
58685;SDS011;44465;53.206;-6.106;2023-08-06T13:02:40;8.02;;;1.73;;
58685;SDS011;44465;53.206;-6.106;2023-08-06T13:05:05;14.93;;;2.03;;
58685;SDS011;44465;53.206;-6.106;2023-08-06T13:07:32;8.52;;;1.50;;
58685;SDS011;44465;53.206;-6.106;2023-08-06T13:09:57;9.32;;;1.67;;
58685;SDS011;44465;53.206;-6.106;2023-08-06T13:12:22;6.18;;;1.33;;
58685;SDS011;44465;53.206;-6.106;2023-08-06T13:14:49;6.82;;;1.50;;
58685;SDS011;44465;53.206;-6.106;2023-08-06T13:17:14;7.00;;;1.58;;
58685;SDS011;44465;53.206;-6.106;2023-08-06T13:19:40;5.13;;;1.50;;
58685;SDS011;44465;53.206;-6.106;2023-08-06T13:22:05;5.43;;;1.83;;
58685;SDS011;44465;53.206;-6.106;2023-08-06T13:24:33;5.47;;;2.15;;
58685;SDS011;44465;53.206;-6.106;2023-08-06T13:27:00;4.90;;;1.48;;
58685;SDS011;44465;53.206;-6.106;2023-08-06T13:29:26;5.60;;;1.20;;
58685;SDS011;44465;53.206;-6.106;2023-08-06T13:31:52;6.68;;;1.55;;
58685;SDS011;44465;53.206;-6.106;2023-08-06T13:34:19;3.60;;;1.40;;
58685;SDS011;44465;53.206;-6.106;2023-08-06T13:36:44;3.08;;;1.05;;
58685;SDS011;44465;53.206;-6.106;2023-08-06T13:39:10;2.60;;;1.25;;
58685;SDS011;44465;53.206;-6.106;2023-08-06T13:41:37;7.03;;;1.80;;
58685;SDS011;44465;53.206;-6.106;2023-08-06T13:44:03;6.20;;;1.20;;
58685;SDS011;44465;53.206;-6.106;2023-08-06T13:46:29;8.82;;;1.38;;
58685;SDS011;44465;53.206;-6.106;2023-08-06T13:48:54;4.50;;;1.25;;
58685;SDS011;44465;53.206;-6.106;2023-08-06T13:51:20;4.18;;;1.38;;
58685;SDS011;44465;53.206;-6.106;2023-08-06T13:53:45;4.75;;;1.65;;
58685;SDS011;44465;53.206;-6.106;2023-08-06T13:56:11;3.28;;;1.30;;
58685;SDS011;44465;53.206;-6.106;2023-08-06T13:58:37;2.72;;;1.17;;
58685;SDS011;44465;53.206;-6.106;2023-08-06T14:01:02;5.13;;;1.38;;
58685;SDS011;44465;53.206;-6.106;2023-08-06T14:03:28;2.83;;;1.30;;
58685;SDS011;44465;53.206;-6.106;2023-08-06T14:05:54;2.20;;;1.20;;
58685;SDS011;44465;53.206;-6.106;2023-08-06T14:10:48;4.85;;;1.10;;
58685;SDS011;44465;53.206;-6.106;2023-08-06T14:13:14;2.58;;;1.02;;
58685;SDS011;44465;53.206;-6.106;2023-08-06T14:15:39;2.95;;;1.20;;
58685;SDS011;44465;53.206;-6.106;2023-08-06T14:18:05;9.27;;;1.85;;
58685;SDS011;44465;53.206;-6.106;2023-08-06T14:20:33;11.82;;;1.70;;
58685;SDS011;44465;53.206;-6.106;2023-08-06T14:22:59;10.80;;;1.90;;
58685;SDS011;44465;53.206;-6.106;2023-08-06T14:25:25;22.00;;;3.15;;
58685;SDS011;44465;53.206;-6.106;2023-08-06T14:27:50;14.52;;;1.98;;
58685;SDS011;44465;53.206;-6.106;2023-08-06T14:30:16;12.90;;;1.77;;
58685;SDS011;44465;53.206;-6.106;2023-08-06T14:32:41;16.80;;;2.75;;
58685;SDS011;44465;53.206;-6.106;2023-08-06T14:35:07;14.40;;;2.10;;
58685;SDS011;44465;53.206;-6.106;2023-08-06T14:37:32;13.32;;;2.15;;
58685;SDS011;44465;53.206;-6.106;2023-08-06T14:39:58;10.60;;;1.73;;
58685;SDS011;44465;53.206;-6.106;2023-08-06T14:42:23;14.45;;;2.70;;
58685;SDS011;44465;53.206;-6.106;2023-08-06T14:44:49;17.23;;;2.25;;
58685;SDS011;44465;53.206;-6.106;2023-08-06T14:47:15;10.32;;;1.85;;
58685;SDS011;44465;53.206;-6.106;2023-08-06T14:49:40;6.72;;;1.73;;
58685;SDS011;44465;53.206;-6.106;2023-08-06T14:52:06;12.80;;;2.25;;